Terminal Aerodrome Forecast
Issued by NWS Sterling, VA

Current Version | Previous Version | Text Only | Print | Product List | Glossary On
Versions: 1 2 3 4 5 6 7 8 9 10 11 12 13 14 15 16 17 18 19 20 21 22 23 24 25 26 27
000
FTUS41 KLWX 141500 AAA
TAFIAD
TAF AMD
KIAD 141511Z 1415/1518 20014G27KT P6SM SCT030 OVC045
     FM150300 17011G17KT 6SM -SHRA OVC040
     FM150800 17012G20KT 6SM -SHRA OVC015
     FM151100 17013G21KT 5SM -SHRA BR OVC008
     FM151400 17014G26KT 5SM -SHRA BR SCT012 OVC020=

USA.gov is the U.S. government's official web portal to all federal, state and local government web resources and services.